sensor_id;sensor_type;location;lat;lon;timestamp;P1;durP1;ratioP1;P2;durP2;ratioP2
71648;SDS011;59492;45.638;11.714;2022-09-14T00:02:17;2.60;;;2.00;;
71648;SDS011;59492;45.638;11.714;2022-09-14T00:04:51;1.80;;;1.70;;
71648;SDS011;59492;45.638;11.714;2022-09-14T00:07:26;2.90;;;1.90;;
71648;SDS011;59492;45.638;11.714;2022-09-14T00:09:52;3.20;;;2.00;;
71648;SDS011;59492;45.638;11.714;2022-09-14T00:12:31;3.70;;;1.90;;
71648;SDS011;59492;45.638;11.714;2022-09-14T00:17:35;2.20;;;1.60;;
71648;SDS011;59492;45.638;11.714;2022-09-14T00:20:09;3.00;;;2.00;;
71648;SDS011;59492;45.638;11.714;2022-09-14T00:23:03;4.70;;;2.00;;
71648;SDS011;59492;45.638;11.714;2022-09-14T00:26:00;2.80;;;1.90;;
71648;SDS011;59492;45.638;11.714;2022-09-14T00:31:29;1.80;;;1.60;;
71648;SDS011;59492;45.638;11.714;2022-09-14T00:34:03;2.50;;;1.70;;
71648;SDS011;59492;45.638;11.714;2022-09-14T00:36:36;3.00;;;1.60;;
71648;SDS011;59492;45.638;11.714;2022-09-14T00:41:44;2.40;;;1.80;;
71648;SDS011;59492;45.638;11.714;2022-09-14T00:46:46;2.10;;;1.90;;
71648;SDS011;59492;45.638;11.714;2022-09-14T00:49:21;4.00;;;2.20;;
71648;SDS011;59492;45.638;11.714;2022-09-14T00:51:58;3.30;;;1.80;;
71648;SDS011;59492;45.638;11.714;2022-09-14T00:54:48;2.00;;;1.70;;
71648;SDS011;59492;45.638;11.714;2022-09-14T00:57:27;4.60;;;2.10;;
71648;SDS011;59492;45.638;11.714;2022-09-14T00:59:59;4.20;;;1.80;;
71648;SDS011;59492;45.638;11.714;2022-09-14T01:02:31;4.30;;;2.00;;
71648;SDS011;59492;45.638;11.714;2022-09-14T01:04:57;3.80;;;1.60;;
71648;SDS011;59492;45.638;11.714;2022-09-14T01:07:40;5.90;;;1.80;;
71648;SDS011;59492;45.638;11.714;2022-09-14T01:13:43;4.10;;;2.20;;
71648;SDS011;59492;45.638;11.714;2022-09-14T01:25:20;3.60;;;1.90;;
71648;SDS011;59492;45.638;11.714;2022-09-14T01:28:08;2.30;;;2.00;;
71648;SDS011;59492;45.638;11.714;2022-09-14T01:30:41;3.00;;;1.80;;
71648;SDS011;59492;45.638;11.714;2022-09-14T01:33:15;1.80;;;1.60;;
71648;SDS011;59492;45.638;11.714;2022-09-14T01:35:53;2.80;;;1.90;;
71648;SDS011;59492;45.638;11.714;2022-09-14T01:38:34;2.10;;;1.90;;
71648;SDS011;59492;45.638;11.714;2022-09-14T01:41:10;3.00;;;2.00;;
71648;SDS011;59492;45.638;11.714;2022-09-14T01:43:42;2.90;;;2.00;;
71648;SDS011;59492;45.638;11.714;2022-09-14T01:46:26;4.20;;;2.20;;
71648;SDS011;59492;45.638;11.714;2022-09-14T01:49:02;3.50;;;2.20;;
71648;SDS011;59492;45.638;11.714;2022-09-14T01:51:37;3.20;;;2.10;;
71648;SDS011;59492;45.638;11.714;2022-09-14T01:54:15;2.90;;;2.40;;
71648;SDS011;59492;45.638;11.714;2022-09-14T01:57:28;3.20;;;2.00;;
71648;SDS011;59492;45.638;11.714;2022-09-14T02:00:06;2.50;;;1.90;;
71648;SDS011;59492;45.638;11.714;2022-09-14T02:02:39;2.30;;;2.00;;
71648;SDS011;59492;45.638;11.714;2022-09-14T02:05:29;3.40;;;2.10;;
71648;SDS011;59492;45.638;11.714;2022-09-14T02:08:26;3.30;;;2.10;;
71648;SDS011;59492;45.638;11.714;2022-09-14T02:10:54;2.50;;;2.20;;
71648;SDS011;59492;45.638;11.714;2022-09-14T02:13:29;3.70;;;2.30;;
71648;SDS011;59492;45.638;11.714;2022-09-14T02:16:13;2.10;;;1.90;;
71648;SDS011;59492;45.638;11.714;2022-09-14T02:18:44;3.00;;;1.60;;
71648;SDS011;59492;45.638;11.714;2022-09-14T02:21:22;3.20;;;2.30;;
71648;SDS011;59492;45.638;11.714;2022-09-14T02:24:01;3.20;;;1.70;;
71648;SDS011;59492;45.638;11.714;2022-09-14T02:26:34;2.40;;;2.20;;
71648;SDS011;59492;45.638;11.714;2022-09-14T02:29:12;5.00;;;2.00;;
71648;SDS011;59492;45.638;11.714;2022-09-14T02:37:29;2.90;;;1.90;;
71648;SDS011;59492;45.638;11.714;2022-09-14T02:42:44;1.90;;;1.60;;
71648;SDS011;59492;45.638;11.714;2022-09-14T02:45:40;4.40;;;2.10;;
71648;SDS011;59492;45.638;11.714;2022-09-14T02:51:35;2.60;;;2.10;;
71648;SDS011;59492;45.638;11.714;2022-09-14T02:57:09;3.50;;;2.10;;
71648;SDS011;59492;45.638;11.714;2022-09-14T02:59:56;2.70;;;1.90;;
71648;SDS011;59492;45.638;11.714;2022-09-14T03:02:21;2.20;;;2.00;;
71648;SDS011;59492;45.638;11.714;2022-09-14T03:04:49;3.70;;;2.00;;
71648;SDS011;59492;45.638;11.714;2022-09-14T03:07:17;3.40;;;2.00;;
71648;SDS011;59492;45.638;11.714;2022-09-14T03:12:58;2.20;;;1.80;;
71648;SDS011;59492;45.638;11.714;2022-09-14T03:15:27;2.40;;;1.90;;
71648;SDS011;59492;45.638;11.714;2022-09-14T03:17:53;2.10;;;1.80;;
71648;SDS011;59492;45.638;11.714;2022-09-14T03:20:28;3.00;;;1.90;;
71648;SDS011;59492;45.638;11.714;2022-09-14T03:23:00;2.30;;;2.00;;
71648;SDS011;59492;45.638;11.714;2022-09-14T03:25:41;3.70;;;1.90;;
71648;SDS011;59492;45.638;11.714;2022-09-14T03:28:14;2.30;;;2.00;;
71648;SDS011;59492;45.638;11.714;2022-09-14T03:30:52;2.80;;;1.80;;
71648;SDS011;59492;45.638;11.714;2022-09-14T03:33:31;3.30;;;1.90;;
71648;SDS011;59492;45.638;11.714;2022-09-14T03:39:03;3.50;;;1.90;;
71648;SDS011;59492;45.638;11.714;2022-09-14T03:41:39;3.80;;;2.00;;
71648;SDS011;59492;45.638;11.714;2022-09-14T03:44:15;2.30;;;1.90;;
71648;SDS011;59492;45.638;11.714;2022-09-14T03:46:40;2.00;;;1.80;;
71648;SDS011;59492;45.638;11.714;2022-09-14T03:51:57;2.80;;;2.00;;
71648;SDS011;59492;45.638;11.714;2022-09-14T03:54:23;7.10;;;2.20;;
71648;SDS011;59492;45.638;11.714;2022-09-14T03:56:56;1.90;;;1.80;;
71648;SDS011;59492;45.638;11.714;2022-09-14T03:59:33;2.40;;;1.70;;
71648;SDS011;59492;45.638;11.714;2022-09-14T04:02:10;2.90;;;2.00;;
71648;SDS011;59492;45.638;11.714;2022-09-14T04:04:38;2.70;;;1.80;;
71648;SDS011;59492;45.638;11.714;2022-09-14T04:07:17;1.90;;;1.80;;
71648;SDS011;59492;45.638;11.714;2022-09-14T04:09:46;4.70;;;2.00;;
71648;SDS011;59492;45.638;11.714;2022-09-14T04:12:22;5.80;;;1.80;;
71648;SDS011;59492;45.638;11.714;2022-09-14T04:15:01;1.70;;;1.60;;
71648;SDS011;59492;45.638;11.714;2022-09-14T04:17:36;2.90;;;1.60;;
71648;SDS011;59492;45.638;11.714;2022-09-14T04:20:14;2.30;;;1.80;;
71648;SDS011;59492;45.638;11.714;2022-09-14T04:25:47;2.00;;;1.80;;
71648;SDS011;59492;45.638;11.714;2022-09-14T04:28:46;1.80;;;1.70;;
71648;SDS011;59492;45.638;11.714;2022-09-14T04:31:19;1.70;;;1.60;;
71648;SDS011;59492;45.638;11.714;2022-09-14T04:33:53;3.40;;;1.90;;
71648;SDS011;59492;45.638;11.714;2022-09-14T04:36:33;3.00;;;1.60;;
71648;SDS011;59492;45.638;11.714;2022-09-14T04:39:04;2.40;;;1.60;;
71648;SDS011;59492;45.638;11.714;2022-09-14T04:41:55;2.20;;;1.50;;
71648;SDS011;59492;45.638;11.714;2022-09-14T04:44:25;2.20;;;1.70;;
71648;SDS011;59492;45.638;11.714;2022-09-14T04:46:59;4.40;;;1.90;;
71648;SDS011;59492;45.638;11.714;2022-09-14T04:49:36;2.30;;;1.80;;
71648;SDS011;59492;45.638;11.714;2022-09-14T04:52:06;2.00;;;1.50;;
71648;SDS011;59492;45.638;11.714;2022-09-14T04:54:35;3.10;;;1.90;;
71648;SDS011;59492;45.638;11.714;2022-09-14T04:57:04;3.10;;;1.90;;
71648;SDS011;59492;45.638;11.714;2022-09-14T04:59:41;1.60;;;1.50;;
71648;SDS011;59492;45.638;11.714;2022-09-14T05:02:20;3.90;;;1.70;;
71648;SDS011;59492;45.638;11.714;2022-09-14T05:04:59;1.90;;;1.60;;
71648;SDS011;59492;45.638;11.714;2022-09-14T05:07:34;2.30;;;1.60;;
71648;SDS011;59492;45.638;11.714;2022-09-14T05:10:09;2.20;;;1.70;;
71648;SDS011;59492;45.638;11.714;2022-09-14T05:12:41;1.90;;;1.70;;
71648;SDS011;59492;45.638;11.714;2022-09-14T05:15:09;1.60;;;1.50;;
71648;SDS011;59492;45.638;11.714;2022-09-14T05:17:38;1.80;;;1.70;;
71648;SDS011;59492;45.638;11.714;2022-09-14T05:20:07;2.40;;;1.70;;
71648;SDS011;59492;45.638;11.714;2022-09-14T05:22:36;3.00;;;1.70;;
71648;SDS011;59492;45.638;11.714;2022-09-14T05:25:04;2.60;;;1.90;;
71648;SDS011;59492;45.638;11.714;2022-09-14T05:27:43;3.10;;;1.90;;
71648;SDS011;59492;45.638;11.714;2022-09-14T05:30:25;2.30;;;1.40;;
71648;SDS011;59492;45.638;11.714;2022-09-14T05:33:07;2.30;;;1.70;;
71648;SDS011;59492;45.638;11.714;2022-09-14T05:35:35;4.40;;;2.00;;
71648;SDS011;59492;45.638;11.714;2022-09-14T05:38:16;2.80;;;2.00;;
71648;SDS011;59492;45.638;11.714;2022-09-14T05:40:55;4.60;;;1.70;;
71648;SDS011;59492;45.638;11.714;2022-09-14T05:43:34;1.50;;;1.30;;
71648;SDS011;59492;45.638;11.714;2022-09-14T05:46:10;3.30;;;1.80;;
71648;SDS011;59492;45.638;11.714;2022-09-14T05:51:21;2.60;;;1.70;;
71648;SDS011;59492;45.638;11.714;2022-09-14T05:54:02;2.20;;;1.60;;
71648;SDS011;59492;45.638;11.714;2022-09-14T05:56:35;2.00;;;1.60;;
71648;SDS011;59492;45.638;11.714;2022-09-14T05:59:07;2.00;;;1.60;;
71648;SDS011;59492;45.638;11.714;2022-09-14T06:01:35;3.50;;;1.60;;
71648;SDS011;59492;45.638;11.714;2022-09-14T06:04:17;3.70;;;1.80;;
71648;SDS011;59492;45.638;11.714;2022-09-14T06:09:26;1.80;;;1.70;;
71648;SDS011;59492;45.638;11.714;2022-09-14T06:11:59;2.30;;;1.80;;
71648;SDS011;59492;45.638;11.714;2022-09-14T06:14:38;4.10;;;1.80;;
71648;SDS011;59492;45.638;11.714;2022-09-14T06:17:21;1.90;;;1.50;;
71648;SDS011;59492;45.638;11.714;2022-09-14T06:20:09;7.30;;;1.70;;
71648;SDS011;59492;45.638;11.714;2022-09-14T06:22:41;1.50;;;1.40;;
71648;SDS011;59492;45.638;11.714;2022-09-14T06:25:10;1.90;;;1.60;;
71648;SDS011;59492;45.638;11.714;2022-09-14T06:27:43;1.80;;;1.40;;
71648;SDS011;59492;45.638;11.714;2022-09-14T06:30:17;3.70;;;1.40;;
71648;SDS011;59492;45.638;11.714;2022-09-14T06:33:23;3.60;;;2.00;;
71648;SDS011;59492;45.638;11.714;2022-09-14T06:35:58;2.30;;;1.70;;
71648;SDS011;59492;45.638;11.714;2022-09-14T06:38:42;2.70;;;1.80;;
71648;SDS011;59492;45.638;11.714;2022-09-14T06:41:27;2.10;;;1.70;;
71648;SDS011;59492;45.638;11.714;2022-09-14T06:44:04;5.00;;;1.60;;
71648;SDS011;59492;45.638;11.714;2022-09-14T06:49:52;3.00;;;1.80;;
71648;SDS011;59492;45.638;11.714;2022-09-14T06:55:13;4.30;;;2.10;;
71648;SDS011;59492;45.638;11.714;2022-09-14T06:58:22;4.10;;;2.00;;
71648;SDS011;59492;45.638;11.714;2022-09-14T07:03:37;3.20;;;2.40;;
71648;SDS011;59492;45.638;11.714;2022-09-14T07:06:15;2.80;;;2.50;;
71648;SDS011;59492;45.638;11.714;2022-09-14T07:11:19;3.60;;;2.30;;
71648;SDS011;59492;45.638;11.714;2022-09-14T07:13:51;5.20;;;2.30;;
71648;SDS011;59492;45.638;11.714;2022-09-14T07:16:25;3.20;;;2.30;;
71648;SDS011;59492;45.638;11.714;2022-09-14T07:18:59;7.10;;;2.70;;
71648;SDS011;59492;45.638;11.714;2022-09-14T07:21:32;7.50;;;2.80;;
71648;SDS011;59492;45.638;11.714;2022-09-14T07:24:07;9.30;;;3.00;;
71648;SDS011;59492;45.638;11.714;2022-09-14T07:26:41;4.60;;;2.50;;
71648;SDS011;59492;45.638;11.714;2022-09-14T07:29:14;4.80;;;2.50;;
71648;SDS011;59492;45.638;11.714;2022-09-14T07:31:51;5.40;;;2.70;;
71648;SDS011;59492;45.638;11.714;2022-09-14T07:34:22;9.50;;;2.80;;
71648;SDS011;59492;45.638;11.714;2022-09-14T07:37:00;6.80;;;2.70;;
71648;SDS011;59492;45.638;11.714;2022-09-14T07:41:59;5.70;;;3.20;;
71648;SDS011;59492;45.638;11.714;2022-09-14T07:44:31;6.80;;;3.10;;
71648;SDS011;59492;45.638;11.714;2022-09-14T07:52:16;6.90;;;2.70;;
71648;SDS011;59492;45.638;11.714;2022-09-14T07:54:45;9.60;;;3.60;;
71648;SDS011;59492;45.638;11.714;2022-09-14T07:57:17;13.40;;;4.20;;
71648;SDS011;59492;45.638;11.714;2022-09-14T07:59:53;7.80;;;3.60;;
71648;SDS011;59492;45.638;11.714;2022-09-14T08:02:41;13.30;;;3.30;;
71648;SDS011;59492;45.638;11.714;2022-09-14T08:05:07;6.50;;;3.30;;
71648;SDS011;59492;45.638;11.714;2022-09-14T08:08:10;8.40;;;3.20;;
71648;SDS011;59492;45.638;11.714;2022-09-14T08:10:46;8.40;;;3.70;;
71648;SDS011;59492;45.638;11.714;2022-09-14T08:13:12;6.60;;;3.10;;
71648;SDS011;59492;45.638;11.714;2022-09-14T08:15:49;9.90;;;3.50;;
71648;SDS011;59492;45.638;11.714;2022-09-14T08:18:25;6.90;;;3.20;;
71648;SDS011;59492;45.638;11.714;2022-09-14T08:23:34;7.30;;;3.20;;
71648;SDS011;59492;45.638;11.714;2022-09-14T08:26:07;6.10;;;2.60;;
71648;SDS011;59492;45.638;11.714;2022-09-14T08:28:52;6.50;;;2.60;;
71648;SDS011;59492;45.638;11.714;2022-09-14T08:31:25;5.40;;;3.10;;
71648;SDS011;59492;45.638;11.714;2022-09-14T08:33:54;8.00;;;3.20;;
71648;SDS011;59492;45.638;11.714;2022-09-14T08:36:29;7.40;;;3.70;;
71648;SDS011;59492;45.638;11.714;2022-09-14T08:39:10;6.70;;;3.00;;
71648;SDS011;59492;45.638;11.714;2022-09-14T08:45:00;4.40;;;2.90;;
71648;SDS011;59492;45.638;11.714;2022-09-14T08:47:34;5.80;;;3.40;;
71648;SDS011;59492;45.638;11.714;2022-09-14T08:50:04;7.90;;;2.70;;
71648;SDS011;59492;45.638;11.714;2022-09-14T08:52:46;6.40;;;3.20;;
71648;SDS011;59492;45.638;11.714;2022-09-14T09:00:55;7.70;;;3.10;;
71648;SDS011;59492;45.638;11.714;2022-09-14T09:10:11;3.50;;;2.80;;
71648;SDS011;59492;45.638;11.714;2022-09-14T09:12:44;6.20;;;2.80;;
71648;SDS011;59492;45.638;11.714;2022-09-14T09:15:31;7.20;;;2.70;;
71648;SDS011;59492;45.638;11.714;2022-09-14T09:18:09;3.70;;;2.50;;
71648;SDS011;59492;45.638;11.714;2022-09-14T09:20:54;4.40;;;2.80;;
71648;SDS011;59492;45.638;11.714;2022-09-14T09:23:28;4.10;;;2.60;;
71648;SDS011;59492;45.638;11.714;2022-09-14T09:28:57;4.00;;;2.50;;
71648;SDS011;59492;45.638;11.714;2022-09-14T09:31:29;3.90;;;2.80;;
71648;SDS011;59492;45.638;11.714;2022-09-14T09:34:07;4.90;;;2.60;;
71648;SDS011;59492;45.638;11.714;2022-09-14T09:36:39;7.00;;;3.00;;
71648;SDS011;59492;45.638;11.714;2022-09-14T09:39:13;3.80;;;2.80;;
71648;SDS011;59492;45.638;11.714;2022-09-14T09:41:44;7.10;;;2.70;;
71648;SDS011;59492;45.638;11.714;2022-09-14T09:44:11;3.80;;;2.80;;
71648;SDS011;59492;45.638;11.714;2022-09-14T09:46:50;3.90;;;2.70;;
71648;SDS011;59492;45.638;11.714;2022-09-14T09:52:32;4.80;;;2.90;;
71648;SDS011;59492;45.638;11.714;2022-09-14T09:54:51;4.30;;;2.70;;
71648;SDS011;59492;45.638;11.714;2022-09-14T09:57:21;8.10;;;3.00;;
71648;SDS011;59492;45.638;11.714;2022-09-14T10:00:08;8.10;;;3.30;;
71648;SDS011;59492;45.638;11.714;2022-09-14T10:02:43;4.80;;;3.40;;
71648;SDS011;59492;45.638;11.714;2022-09-14T10:08:00;6.70;;;2.50;;
71648;SDS011;59492;45.638;11.714;2022-09-14T10:13:00;5.10;;;2.40;;
71648;SDS011;59492;45.638;11.714;2022-09-14T10:15:40;5.30;;;2.90;;
71648;SDS011;59492;45.638;11.714;2022-09-14T10:21:11;4.80;;;2.80;;
71648;SDS011;59492;45.638;11.714;2022-09-14T10:23:33;4.50;;;2.80;;
71648;SDS011;59492;45.638;11.714;2022-09-14T10:32:25;3.90;;;2.50;;
71648;SDS011;59492;45.638;11.714;2022-09-14T10:34:50;3.90;;;2.60;;
71648;SDS011;59492;45.638;11.714;2022-09-14T10:40:23;6.30;;;3.50;;
71648;SDS011;59492;45.638;11.714;2022-09-14T10:43:21;4.70;;;3.50;;
71648;SDS011;59492;45.638;11.714;2022-09-14T10:46:02;5.50;;;3.00;;
71648;SDS011;59492;45.638;11.714;2022-09-14T10:48:41;6.20;;;3.30;;
71648;SDS011;59492;45.638;11.714;2022-09-14T10:54:14;3.70;;;2.70;;
71648;SDS011;59492;45.638;11.714;2022-09-14T10:59:54;6.40;;;2.50;;
71648;SDS011;59492;45.638;11.714;2022-09-14T11:02:44;4.50;;;2.70;;
71648;SDS011;59492;45.638;11.714;2022-09-14T11:08:38;7.50;;;2.70;;
71648;SDS011;59492;45.638;11.714;2022-09-14T11:11:35;5.40;;;2.80;;
71648;SDS011;59492;45.638;11.714;2022-09-14T11:16:58;3.80;;;2.50;;
71648;SDS011;59492;45.638;11.714;2022-09-14T11:29:38;5.70;;;3.00;;
71648;SDS011;59492;45.638;11.714;2022-09-14T11:32:13;5.80;;;3.10;;
71648;SDS011;59492;45.638;11.714;2022-09-14T11:34:47;4.10;;;2.70;;
71648;SDS011;59492;45.638;11.714;2022-09-14T11:38:10;6.00;;;2.90;;
71648;SDS011;59492;45.638;11.714;2022-09-14T11:43:25;4.60;;;2.70;;
71648;SDS011;59492;45.638;11.714;2022-09-14T11:46:09;4.70;;;3.10;;
71648;SDS011;59492;45.638;11.714;2022-09-14T11:48:53;5.40;;;2.90;;
71648;SDS011;59492;45.638;11.714;2022-09-14T11:54:17;3.50;;;2.70;;
71648;SDS011;59492;45.638;11.714;2022-09-14T11:56:51;5.70;;;2.70;;
71648;SDS011;59492;45.638;11.714;2022-09-14T12:05:50;6.40;;;3.30;;
71648;SDS011;59492;45.638;11.714;2022-09-14T12:13:41;5.30;;;2.50;;
71648;SDS011;59492;45.638;11.714;2022-09-14T12:16:14;3.00;;;2.70;;
71648;SDS011;59492;45.638;11.714;2022-09-14T12:18:44;5.70;;;2.60;;
71648;SDS011;59492;45.638;11.714;2022-09-14T12:21:20;3.70;;;2.60;;
71648;SDS011;59492;45.638;11.714;2022-09-14T12:23:52;7.30;;;3.00;;
71648;SDS011;59492;45.638;11.714;2022-09-14T12:29:00;4.20;;;2.80;;
71648;SDS011;59492;45.638;11.714;2022-09-14T12:32:22;5.90;;;3.20;;
71648;SDS011;59492;45.638;11.714;2022-09-14T12:34:24;7.60;;;3.50;;
71648;SDS011;59492;45.638;11.714;2022-09-14T12:44:50;8.00;;;3.30;;
71648;SDS011;59492;45.638;11.714;2022-09-14T12:49:54;7.70;;;3.10;;
71648;SDS011;59492;45.638;11.714;2022-09-14T12:55:53;4.70;;;3.20;;
71648;SDS011;59492;45.638;11.714;2022-09-14T13:04:01;5.50;;;3.10;;
71648;SDS011;59492;45.638;11.714;2022-09-14T13:06:39;6.30;;;3.20;;
71648;SDS011;59492;45.638;11.714;2022-09-14T13:09:21;5.40;;;3.30;;
71648;SDS011;59492;45.638;11.714;2022-09-14T13:11:53;7.60;;;3.00;;
71648;SDS011;59492;45.638;11.714;2022-09-14T13:14:25;5.90;;;3.20;;
71648;SDS011;59492;45.638;11.714;2022-09-14T13:16:54;5.20;;;3.50;;
71648;SDS011;59492;45.638;11.714;2022-09-14T13:19:27;4.40;;;2.90;;
71648;SDS011;59492;45.638;11.714;2022-09-14T13:22:16;6.10;;;2.90;;
71648;SDS011;59492;45.638;11.714;2022-09-14T13:24:44;4.90;;;2.80;;
71648;SDS011;59492;45.638;11.714;2022-09-14T13:27:23;4.70;;;2.60;;
71648;SDS011;59492;45.638;11.714;2022-09-14T13:30:03;4.70;;;2.90;;
71648;SDS011;59492;45.638;11.714;2022-09-14T13:32:46;4.90;;;3.10;;
71648;SDS011;59492;45.638;11.714;2022-09-14T13:35:21;6.10;;;2.70;;
71648;SDS011;59492;45.638;11.714;2022-09-14T13:37:58;3.80;;;2.70;;
71648;SDS011;59492;45.638;11.714;2022-09-14T13:40:36;2.60;;;2.40;;
71648;SDS011;59492;45.638;11.714;2022-09-14T13:43:19;7.70;;;2.80;;
71648;SDS011;59492;45.638;11.714;2022-09-14T13:45:54;5.90;;;2.40;;
71648;SDS011;59492;45.638;11.714;2022-09-14T13:48:25;3.40;;;2.40;;
71648;SDS011;59492;45.638;11.714;2022-09-14T13:50:54;5.70;;;2.90;;
71648;SDS011;59492;45.638;11.714;2022-09-14T14:01:32;7.60;;;2.40;;
71648;SDS011;59492;45.638;11.714;2022-09-14T14:04:16;7.40;;;2.20;;
71648;SDS011;59492;45.638;11.714;2022-09-14T14:07:50;6.10;;;2.50;;
71648;SDS011;59492;45.638;11.714;2022-09-14T14:09:55;4.50;;;2.30;;
71648;SDS011;59492;45.638;11.714;2022-09-14T14:20:27;4.30;;;2.10;;
71648;SDS011;59492;45.638;11.714;2022-09-14T14:25:55;6.60;;;2.40;;
71648;SDS011;59492;45.638;11.714;2022-09-14T14:28:32;5.30;;;2.20;;
71648;SDS011;59492;45.638;11.714;2022-09-14T14:31:01;5.80;;;2.30;;
71648;SDS011;59492;45.638;11.714;2022-09-14T14:33:27;7.60;;;2.80;;
71648;SDS011;59492;45.638;11.714;2022-09-14T14:35:53;4.60;;;2.10;;
71648;SDS011;59492;45.638;11.714;2022-09-14T14:38:21;4.30;;;2.30;;
71648;SDS011;59492;45.638;11.714;2022-09-14T14:40:48;5.00;;;2.60;;
71648;SDS011;59492;45.638;11.714;2022-09-14T14:43:19;5.60;;;2.70;;
71648;SDS011;59492;45.638;11.714;2022-09-14T14:45:47;8.80;;;3.10;;
71648;SDS011;59492;45.638;11.714;2022-09-14T14:48:20;6.70;;;2.70;;
71648;SDS011;59492;45.638;11.714;2022-09-14T14:50:50;4.60;;;2.90;;
71648;SDS011;59492;45.638;11.714;2022-09-14T14:53:18;6.40;;;3.00;;
71648;SDS011;59492;45.638;11.714;2022-09-14T14:55:44;5.90;;;3.20;;
71648;SDS011;59492;45.638;11.714;2022-09-14T14:58:12;5.50;;;2.90;;
71648;SDS011;59492;45.638;11.714;2022-09-14T15:00:43;6.10;;;3.10;;
71648;SDS011;59492;45.638;11.714;2022-09-14T15:03:14;5.50;;;2.80;;
71648;SDS011;59492;45.638;11.714;2022-09-14T15:05:40;4.30;;;2.70;;
71648;SDS011;59492;45.638;11.714;2022-09-14T15:08:10;5.00;;;2.90;;
71648;SDS011;59492;45.638;11.714;2022-09-14T15:10:37;4.90;;;2.40;;
71648;SDS011;59492;45.638;11.714;2022-09-14T15:13:04;4.80;;;2.60;;
71648;SDS011;59492;45.638;11.714;2022-09-14T15:15:33;6.20;;;2.80;;
71648;SDS011;59492;45.638;11.714;2022-09-14T15:18:04;8.10;;;2.50;;
71648;SDS011;59492;45.638;11.714;2022-09-14T15:20:30;7.30;;;3.40;;
71648;SDS011;59492;45.638;11.714;2022-09-14T15:22:56;6.20;;;3.00;;
71648;SDS011;59492;45.638;11.714;2022-09-14T15:25:22;5.60;;;2.90;;
71648;SDS011;59492;45.638;11.714;2022-09-14T15:27:47;6.70;;;2.30;;
71648;SDS011;59492;45.638;11.714;2022-09-14T15:30:18;5.60;;;2.30;;
71648;SDS011;59492;45.638;11.714;2022-09-14T15:32:44;5.60;;;2.70;;
71648;SDS011;59492;45.638;11.714;2022-09-14T15:35:13;5.50;;;2.50;;
71648;SDS011;59492;45.638;11.714;2022-09-14T15:37:39;7.20;;;2.70;;
71648;SDS011;59492;45.638;11.714;2022-09-14T15:40:05;7.90;;;2.70;;
71648;SDS011;59492;45.638;11.714;2022-09-14T15:42:31;5.30;;;2.60;;
71648;SDS011;59492;45.638;11.714;2022-09-14T15:45:00;5.20;;;2.90;;
71648;SDS011;59492;45.638;11.714;2022-09-14T15:47:28;4.30;;;2.70;;
71648;SDS011;59492;45.638;11.714;2022-09-14T15:49:57;4.30;;;2.50;;
71648;SDS011;59492;45.638;11.714;2022-09-14T15:52:25;4.40;;;2.70;;
71648;SDS011;59492;45.638;11.714;2022-09-14T15:54:51;5.80;;;3.00;;
71648;SDS011;59492;45.638;11.714;2022-09-14T15:57:20;5.70;;;2.90;;
71648;SDS011;59492;45.638;11.714;2022-09-14T15:59:45;6.20;;;3.20;;
71648;SDS011;59492;45.638;11.714;2022-09-14T16:02:13;4.90;;;3.00;;
71648;SDS011;59492;45.638;11.714;2022-09-14T16:04:41;5.30;;;2.60;;
71648;SDS011;59492;45.638;11.714;2022-09-14T16:07:07;5.00;;;3.10;;
71648;SDS011;59492;45.638;11.714;2022-09-14T16:09:45;4.40;;;2.50;;
71648;SDS011;59492;45.638;11.714;2022-09-14T16:12:11;4.20;;;3.10;;
71648;SDS011;59492;45.638;11.714;2022-09-14T16:14:37;5.20;;;3.00;;
71648;SDS011;59492;45.638;11.714;2022-09-14T16:17:03;7.00;;;3.00;;
71648;SDS011;59492;45.638;11.714;2022-09-14T16:19:32;5.00;;;3.00;;
71648;SDS011;59492;45.638;11.714;2022-09-14T16:22:00;5.20;;;2.80;;
71648;SDS011;59492;45.638;11.714;2022-09-14T16:24:28;4.40;;;2.80;;
71648;SDS011;59492;45.638;11.714;2022-09-14T16:26:56;5.20;;;2.90;;
71648;SDS011;59492;45.638;11.714;2022-09-14T16:29:26;8.30;;;3.00;;
71648;SDS011;59492;45.638;11.714;2022-09-14T16:32:05;8.70;;;2.70;;
71648;SDS011;59492;45.638;11.714;2022-09-14T16:34:31;5.00;;;3.20;;
71648;SDS011;59492;45.638;11.714;2022-09-14T16:37:01;4.70;;;3.00;;
71648;SDS011;59492;45.638;11.714;2022-09-14T16:39:29;9.10;;;3.70;;
71648;SDS011;59492;45.638;11.714;2022-09-14T16:41:56;9.20;;;4.30;;
71648;SDS011;59492;45.638;11.714;2022-09-14T16:44:25;11.70;;;3.80;;
71648;SDS011;59492;45.638;11.714;2022-09-14T16:46:52;7.60;;;3.30;;
71648;SDS011;59492;45.638;11.714;2022-09-14T16:49:28;8.50;;;3.50;;
71648;SDS011;59492;45.638;11.714;2022-09-14T16:51:57;7.10;;;3.50;;
71648;SDS011;59492;45.638;11.714;2022-09-14T16:54:26;8.90;;;3.90;;
71648;SDS011;59492;45.638;11.714;2022-09-14T16:56:55;7.30;;;3.70;;
71648;SDS011;59492;45.638;11.714;2022-09-14T16:59:29;7.50;;;3.80;;
71648;SDS011;59492;45.638;11.714;2022-09-14T17:02:10;12.00;;;4.00;;
71648;SDS011;59492;45.638;11.714;2022-09-14T17:04:38;8.30;;;3.70;;
71648;SDS011;59492;45.638;11.714;2022-09-14T17:07:14;8.70;;;3.40;;
71648;SDS011;59492;45.638;11.714;2022-09-14T17:09:42;7.70;;;3.50;;
71648;SDS011;59492;45.638;11.714;2022-09-14T17:12:21;6.80;;;3.30;;
71648;SDS011;59492;45.638;11.714;2022-09-14T17:14:57;14.70;;;3.50;;
71648;SDS011;59492;45.638;11.714;2022-09-14T17:17:23;9.70;;;3.80;;
71648;SDS011;59492;45.638;11.714;2022-09-14T17:19:54;11.80;;;3.70;;
71648;SDS011;59492;45.638;11.714;2022-09-14T17:22:22;9.30;;;3.80;;
71648;SDS011;59492;45.638;11.714;2022-09-14T17:24:48;8.20;;;4.00;;
71648;SDS011;59492;45.638;11.714;2022-09-14T17:27:16;10.40;;;3.90;;
71648;SDS011;59492;45.638;11.714;2022-09-14T17:29:44;11.60;;;3.90;;
71648;SDS011;59492;45.638;11.714;2022-09-14T17:32:13;12.90;;;4.60;;
71648;SDS011;59492;45.638;11.714;2022-09-14T17:34:41;9.70;;;4.40;;
71648;SDS011;59492;45.638;11.714;2022-09-14T17:37:10;8.30;;;4.00;;
71648;SDS011;59492;45.638;11.714;2022-09-14T17:39:37;8.10;;;4.30;;
71648;SDS011;59492;45.638;11.714;2022-09-14T17:42:06;12.60;;;5.00;;
71648;SDS011;59492;45.638;11.714;2022-09-14T17:44:32;9.40;;;5.00;;
71648;SDS011;59492;45.638;11.714;2022-09-14T17:47:00;11.70;;;5.00;;
71648;SDS011;59492;45.638;11.714;2022-09-14T17:49:26;10.70;;;4.80;;
71648;SDS011;59492;45.638;11.714;2022-09-14T17:51:57;10.80;;;4.90;;
71648;SDS011;59492;45.638;11.714;2022-09-14T17:54:26;10.50;;;4.90;;
71648;SDS011;59492;45.638;11.714;2022-09-14T17:56:51;12.30;;;4.80;;
71648;SDS011;59492;45.638;11.714;2022-09-14T17:59:18;13.30;;;5.60;;
71648;SDS011;59492;45.638;11.714;2022-09-14T18:01:45;10.50;;;5.20;;
71648;SDS011;59492;45.638;11.714;2022-09-14T18:04:23;11.90;;;6.20;;
71648;SDS011;59492;45.638;11.714;2022-09-14T18:06:48;13.90;;;5.60;;
71648;SDS011;59492;45.638;11.714;2022-09-14T18:09:18;13.90;;;5.50;;
71648;SDS011;59492;45.638;11.714;2022-09-14T18:11:47;11.70;;;6.00;;
71648;SDS011;59492;45.638;11.714;2022-09-14T18:14:22;10.20;;;6.10;;
71648;SDS011;59492;45.638;11.714;2022-09-14T18:16:50;13.60;;;6.40;;
71648;SDS011;59492;45.638;11.714;2022-09-14T18:19:19;15.90;;;5.90;;
71648;SDS011;59492;45.638;11.714;2022-09-14T18:24:46;9.00;;;5.10;;
71648;SDS011;59492;45.638;11.714;2022-09-14T18:29:51;6.70;;;4.90;;
71648;SDS011;59492;45.638;11.714;2022-09-14T18:32:19;9.30;;;5.20;;
71648;SDS011;59492;45.638;11.714;2022-09-14T18:34:45;10.60;;;5.20;;
71648;SDS011;59492;45.638;11.714;2022-09-14T18:37:16;11.70;;;5.50;;